Time;durP1;ratioP1;P1;durP2;ratioP2;P2;SDS_P1;SDS_P2;PMS_P1;PMS_P2;Temp;Humidity;BMP_temperature;BMP_pressure;BME280_temperature;BME280_humidity;BME280_pressure;Samples;Min_cycle;Max_cycle;Signal;HPM_P1;HPM_P2
2021/03/29 00:00:35;;;;;;;15.37;4.27;;;9.80;83.10;;;;;;5016204;28;20169;-87
2021/03/29 00:03:08;;;;;;;15.33;4.17;;;9.80;83.30;;;;;;5033538;28;20679;-87
2021/03/29 00:05:42;;;;;;;12.63;3.23;;;9.90;82.40;;;;;;5034048;28;20160;-87
2021/03/29 00:08:18;;;;;;;9.50;3.83;;;9.90;82.40;;;;;;5016226;28;20197;-87
2021/03/29 00:10:48;;;;;;;12.37;3.80;;;9.80;82.80;;;;;;5033660;28;20172;-87
2021/03/29 00:13:24;;;;;;;7.83;2.60;;;9.80;83.20;;;;;;5034085;28;20176;-87
2021/03/29 00:15:52;;;;;;;11.17;2.97;;;9.80;82.90;;;;;;5033582;28;20180;-87
2021/03/29 00:18:26;;;;;;;15.97;2.63;;;9.90;82.60;;;;;;5033262;28;20626;-87
2021/03/29 00:21:06;;;;;;;7.00;2.97;;;9.90;82.20;;;;;;5015979;28;20176;-87
2021/03/29 00:23:41;;;;;;;9.37;3.53;;;9.90;81.70;;;;;;5033495;28;20168;-87
2021/03/29 00:26:08;;;;;;;13.90;3.73;;;9.90;81.70;;;;;;5033429;28;20235;-87
2021/03/29 00:28:41;;;;;;;9.90;3.20;;;9.90;82.10;;;;;;5033372;28;20192;-87
2021/03/29 00:31:14;;;;;;;8.97;3.50;;;9.80;82.00;;;;;;5016080;28;20176;-87
2021/03/29 00:33:47;;;;;;;11.90;3.07;;;9.80;81.90;;;;;;5015284;28;20661;-86
2021/03/29 00:36:14;;;;;;;9.13;3.27;;;9.80;81.90;;;;;;5015303;28;20183;-86
2021/03/29 00:38:52;;;;;;;5.47;2.13;;;9.80;81.80;;;;;;5015139;28;20212;-85
2021/03/29 00:41:19;;;;;;;10.80;3.00;;;9.90;81.30;;;;;;5032878;28;20196;-85
2021/03/29 00:43:47;;;;;;;5.10;1.77;;;9.90;81.40;;;;;;5032840;28;20594;-86
2021/03/29 00:46:23;;;;;;;11.37;3.03;;;9.80;81.50;;;;;;5015243;28;20169;-86
2021/03/29 00:48:55;;;;;;;5.17;2.10;;;9.80;81.40;;;;;;5015073;28;20196;-85
2021/03/29 00:51:28;;;;;;;12.30;3.13;;;10.00;80.30;;;;;;5015139;28;20192;-85
2021/03/29 00:54:00;;;;;;;7.87;2.67;;;9.90;81.10;;;;;;5032817;28;20627;-86
2021/03/29 00:56:28;;;;;;;14.23;3.13;;;9.90;81.20;;;;;;5032820;28;20574;-86
2021/03/29 00:58:58;;;;;;;7.50;2.93;;;9.80;81.50;;;;;;5036354;28;20266;-86
2021/03/29 01:01:35;;;;;;;8.37;3.13;;;9.80;81.40;;;;;;5036472;28;20280;-85
2021/03/29 01:04:05;;;;;;;8.03;2.60;;;9.90;80.60;;;;;;5036556;28;20168;-86
2021/03/29 01:06:48;;;;;;;12.47;2.73;;;9.90;80.70;;;;;;5018704;28;20307;-85
2021/03/29 01:09:22;;;;;;;6.87;1.90;;;9.90;80.60;;;;;;5018712;28;20231;-85
2021/03/29 01:12:02;;;;;;;10.03;2.53;;;10.00;79.70;;;;;;5018689;28;20218;-85
2021/03/29 01:14:39;;;;;;;6.50;2.53;;;10.00;80.30;;;;;;5018625;28;20176;-85
2021/03/29 01:17:27;;;;;;;14.20;2.93;;;9.90;80.40;;;;;;5019399;28;20659;-85
2021/03/29 01:20:11;;;;;;;6.33;2.60;;;10.00;80.10;;;;;;5019032;28;20619;-86
2021/03/29 01:22:47;;;;;;;9.53;3.00;;;10.00;80.50;;;;;;5018338;28;20250;-86
2021/03/29 01:25:22;;;;;;;7.03;2.27;;;9.90;80.80;;;;;;5018583;28;20172;-87
2021/03/29 01:28:03;;;;;;;12.57;3.27;;;9.90;80.70;;;;;;5036144;28;20664;-86
2021/03/29 01:30:34;;;;;;;12.70;3.77;;;10.00;80.40;;;;;;5036346;28;20169;-87
2021/03/29 01:33:02;;;;;;;9.07;2.70;;;10.00;80.30;;;;;;5036206;28;20172;-86
2021/03/29 01:35:44;;;;;;;8.47;3.07;;;10.00;80.10;;;;;;5036049;28;20578;-86
2021/03/29 01:38:11;;;;;;;7.57;2.80;;;10.00;79.80;;;;;;5017997;28;20220;-85
2021/03/29 01:40:47;;;;;;;9.87;3.00;;;10.00;79.10;;;;;;5036150;28;20266;-87
2021/03/29 01:43:15;;;;;;;5.37;2.40;;;10.00;79.80;;;;;;5018821;28;20204;-86
2021/03/29 01:45:42;;;;;;;9.83;2.13;;;9.90;80.10;;;;;;5035849;28;20361;-86
2021/03/29 01:48:15;;;;;;;7.77;2.93;;;9.90;79.70;;;;;;5035831;28;20203;-86
2021/03/29 01:50:47;;;;;;;7.03;2.47;;;10.00;78.60;;;;;;5035814;28;20264;-86
2021/03/29 01:53:14;;;;;;;11.83;3.40;;;10.00;79.30;;;;;;5035877;28;20256;-87
2021/03/29 01:55:44;;;;;;;5.33;2.70;;;10.00;79.30;;;;;;5035761;28;20176;-87
2021/03/29 01:58:10;;;;;;;10.07;3.13;;;9.90;79.40;;;;;;5018044;28;20240;-86
2021/03/29 02:00:48;;;;;;;11.13;3.27;;;9.90;79.30;;;;;;5018124;28;20272;-86
2021/03/29 02:03:20;;;;;;;14.43;3.27;;;9.90;79.20;;;;;;5017795;28;20196;-87
2021/03/29 02:05:53;;;;;;;16.67;3.97;;;9.90;79.10;;;;;;5035691;28;20165;-87
2021/03/29 02:08:29;;;;;;;10.50;2.77;;;9.90;78.90;;;;;;5017339;28;20661;-86
2021/03/29 02:10:57;;;;;;;6.97;2.70;;;9.90;78.80;;;;;;5035374;28;20173;-87
2021/03/29 02:13:30;;;;;;;8.33;3.00;;;9.90;79.00;;;;;;5017710;28;20177;-87
2021/03/29 02:16:08;;;;;;;5.37;2.70;;;9.90;79.00;;;;;;5035469;28;20181;-87
2021/03/29 02:18:47;;;;;;;6.03;2.40;;;9.90;78.70;;;;;;5018035;28;20227;-87
2021/03/29 02:21:19;;;;;;;8.87;2.80;;;9.90;79.00;;;;;;5017588;28;20180;-86
2021/03/29 02:24:01;;;;;;;9.73;3.10;;;9.90;78.80;;;;;;5035328;28;20172;-86
2021/03/29 02:26:39;;;;;;;8.37;3.23;;;10.00;78.90;;;;;;5017374;28;20188;-86
2021/03/29 02:29:08;;;;;;;7.33;2.83;;;10.00;77.90;;;;;;5017227;28;20196;-87
2021/03/29 02:31:42;;;;;;;10.50;3.20;;;10.00;77.80;;;;;;5017326;28;20560;-86
2021/03/29 02:34:14;;;;;;;5.23;2.50;;;10.00;77.80;;;;;;5035360;28;20201;-86
2021/03/29 02:36:41;;;;;;;9.07;3.13;;;9.90;78.10;;;;;;5034916;28;20172;-86
2021/03/29 02:39:06;;;;;;;9.80;2.87;;;9.90;78.60;;;;;;5034592;28;20212;-86
2021/03/29 02:41:41;;;;;;;11.33;3.57;;;9.90;78.50;;;;;;5017008;28;20201;-86
2021/03/29 02:44:12;;;;;;;6.67;2.73;;;9.90;78.50;;;;;;5034926;28;20180;-86
2021/03/29 02:46:44;;;;;;;14.50;4.37;;;9.90;77.90;;;;;;5017006;28;20223;-87
2021/03/29 02:49:19;;;;;;;13.03;3.37;;;10.00;77.70;;;;;;5016794;28;20196;-86
2021/03/29 02:51:46;;;;;;;9.37;3.30;;;10.00;77.80;;;;;;5016883;28;20192;-86
2021/03/29 02:54:18;;;;;;;7.67;3.40;;;9.90;78.10;;;;;;5016939;28;20231;-86
2021/03/29 02:56:52;;;;;;;11.23;3.90;;;10.00;77.60;;;;;;5016852;28;20181;-87
2021/03/29 02:59:27;;;;;;;6.93;2.90;;;10.00;77.30;;;;;;5016794;28;20196;-86
2021/03/29 03:02:02;;;;;;;12.00;4.40;;;10.00;77.30;;;;;;5016683;28;20204;-87
2021/03/29 03:04:28;;;;;;;12.23;4.07;;;10.00;77.60;;;;;;5016618;28;20191;-87
2021/03/29 03:06:54;;;;;;;13.03;4.07;;;9.90;77.80;;;;;;5016603;28;20180;-87
2021/03/29 03:09:31;;;;;;;7.87;2.93;;;10.00;77.60;;;;;;5016576;28;20197;-87
2021/03/29 03:12:00;;;;;;;16.93;3.63;;;10.00;77.30;;;;;;5017006;28;20203;-86
2021/03/29 03:14:34;;;;;;;9.57;3.47;;;9.90;77.50;;;;;;5016663;28;20688;-87
2021/03/29 03:17:00;;;;;;;11.43;3.37;;;9.90;78.20;;;;;;5016411;28;20168;-86
2021/03/29 03:19:34;;;;;;;12.53;4.03;;;9.80;78.40;;;;;;5033967;28;20287;-86
2021/03/29 03:22:05;;;;;;;13.53;3.83;;;9.90;77.40;;;;;;5015259;28;20225;-86
2021/03/29 03:24:38;;;;;;;10.73;3.83;;;10.00;77.00;;;;;;5016471;28;20181;-86
2021/03/29 03:27:14;;;;;;;12.00;3.80;;;10.00;77.50;;;;;;5033920;28;20223;-87
2021/03/29 03:29:50;;;;;;;11.40;3.70;;;10.00;77.50;;;;;;5016059;28;20562;-87
2021/03/29 03:32:19;;;;;;;7.13;2.97;;;10.00;77.40;;;;;;5016131;28;20178;-86
2021/03/29 03:34:48;;;;;;;14.23;3.47;;;10.00;77.20;;;;;;5033836;28;20169;-86
2021/03/29 03:37:24;;;;;;;7.27;3.00;;;9.90;78.00;;;;;;5033842;28;20602;-86
2021/03/29 03:40:00;;;;;;;13.80;3.33;;;9.90;78.40;;;;;;5033644;28;20188;-86
2021/03/29 03:42:33;;;;;;;8.83;3.57;;;10.00;77.30;;;;;;5033910;28;20188;-86
2021/03/29 03:45:08;;;;;;;12.40;3.43;;;10.10;77.10;;;;;;5016184;28;20704;-86
2021/03/29 03:47:40;;;;;;;8.77;3.33;;;10.00;77.50;;;;;;5016489;28;20165;-86
2021/03/29 03:50:14;;;;;;;10.57;4.37;;;10.00;77.50;;;;;;5015990;28;20626;-86
2021/03/29 03:52:48;;;;;;;10.07;3.47;;;9.90;77.90;;;;;;5015835;28;20187;-86
2021/03/29 03:55:16;;;;;;;11.40;4.43;;;9.90;77.70;;;;;;5015860;28;20679;-86
2021/03/29 03:57:49;;;;;;;9.30;3.57;;;10.00;77.50;;;;;;5033306;28;20547;-86
2021/03/29 04:00:24;;;;;;;13.23;4.20;;;10.00;77.30;;;;;;5033378;28;20311;-86
2021/03/29 04:02:55;;;;;;;14.40;4.17;;;10.00;77.50;;;;;;5033363;28;20199;-86
2021/03/29 04:05:22;;;;;;;11.47;4.23;;;10.00;77.00;;;;;;5033309;28;20204;-86
2021/03/29 04:07:54;;;;;;;7.90;2.90;;;10.00;77.80;;;;;;5033290;28;20669;-86
2021/03/29 04:10:46;;;;;;;12.07;4.27;;;10.00;77.50;;;;;;5015625;28;20641;-86
2021/03/29 04:13:30;;;;;;;12.10;4.33;;;9.90;78.20;;;;;;5033228;28;20168;-86
2021/03/29 04:16:02;;;;;;;9.77;4.27;;;9.90;78.30;;;;;;5033222;28;20263;-86
2021/03/29 04:18:35;;;;;;;9.13;3.77;;;9.90;78.50;;;;;;5015426;28;20224;-86
2021/03/29 04:21:11;;;;;;;9.20;4.77;;;9.80;79.90;;;;;;5015357;28;20187;-87
2021/03/29 04:23:42;;;;;;;13.23;4.13;;;9.80;79.90;;;;;;5015543;28;20173;-86
2021/03/29 04:26:14;;;;;;;16.73;4.53;;;9.70;80.20;;;;;;5033145;28;20172;-86
2021/03/29 04:28:46;;;;;;;14.23;5.30;;;9.70;80.30;;;;;;5015317;28;20564;-86
2021/03/29 04:31:23;;;;;;;11.30;5.13;;;9.70;80.20;;;;;;5033315;28;20169;-86
2021/03/29 04:33:59;;;;;;;8.20;5.13;;;9.70;80.50;;;;;;5019045;28;20195;-86
2021/03/29 04:36:34;;;;;;;13.93;6.00;;;9.80;80.00;;;;;;5019392;28;20633;-86
2021/03/29 04:39:02;;;;;;;11.43;5.17;;;9.70;80.00;;;;;;5037097;28;20208;-86
2021/03/29 04:41:34;;;;;;;16.67;5.77;;;9.80;79.50;;;;;;5060528;22;20568;-82
2021/03/29 04:44:06;;;;;;;17.27;5.33;;;9.80;79.10;;;;;;5035719;28;20184;-82
2021/03/29 04:46:37;;;;;;;10.57;5.00;;;9.80;79.70;;;;;;5019248;28;20244;-82
2021/03/29 04:49:09;;;;;;;10.77;4.17;;;9.80;79.50;;;;;;5035640;28;20176;-82
2021/03/29 04:51:41;;;;;;;11.47;4.77;;;9.80;79.20;;;;;;5035574;28;20236;-82
2021/03/29 04:54:12;;;;;;;10.83;4.43;;;9.80;79.30;;;;;;5019144;28;20172;-82
2021/03/29 04:56:48;;;;;;;10.33;5.07;;;9.80;78.70;;;;;;5037222;28;20223;-82
2021/03/29 04:59:24;;;;;;;13.23;5.47;;;9.90;78.70;;;;;;5018982;28;20546;-82
2021/03/29 05:02:00;;;;;;;11.53;5.63;;;9.80;79.20;;;;;;5036660;28;20235;-82
2021/03/29 05:04:31;;;;;;;14.17;5.07;;;9.90;78.60;;;;;;5019048;28;20653;-82
2021/03/29 05:07:06;;;;;;;12.77;5.70;;;9.80;79.60;;;;;;5018838;28;20184;-82
2021/03/29 05:09:39;;;;;;;8.27;4.60;;;9.80;79.70;;;;;;5036875;28;20176;-82
2021/03/29 05:12:13;;;;;;;10.10;4.70;;;9.70;79.80;;;;;;5036596;28;20176;-82
2021/03/29 05:14:45;;;;;;;10.20;4.57;;;9.70;79.60;;;;;;5036480;28;20176;-82
2021/03/29 05:17:17;;;;;;;12.77;4.77;;;9.80;78.90;;;;;;5018802;28;20237;-82
2021/03/29 05:19:46;;;;;;;4.80;3.17;;;9.80;79.10;;;;;;5036616;28;20539;-82
2021/03/29 05:22:19;;;;;;;7.87;3.60;;;9.80;78.80;;;;;;5018595;28;20571;-82
2021/03/29 05:24:53;;;;;;;13.80;4.70;;;9.80;79.10;;;;;;5036247;28;20176;-82
2021/03/29 05:27:30;;;;;;;13.43;4.70;;;9.80;78.80;;;;;;5036259;28;20276;-82
2021/03/29 05:30:04;;;;;;;17.83;5.20;;;9.80;79.50;;;;;;5018375;28;20679;-82
2021/03/29 05:32:36;;;;;;;13.30;4.10;;;9.80;78.60;;;;;;5036214;28;20654;-82
2021/03/29 05:35:09;;;;;;;8.10;3.57;;;9.80;79.20;;;;;;5018297;28;20675;-82
2021/03/29 05:37:41;;;;;;;15.77;4.80;;;9.80;79.10;;;;;;5036100;28;20177;-82
2021/03/29 05:40:17;;;;;;;11.33;4.67;;;9.80;79.00;;;;;;5035793;28;20664;-82
2021/03/29 05:42:54;;;;;;;16.03;4.80;;;9.90;79.10;;;;;;5018107;28;20639;-82
2021/03/29 05:45:23;;;;;;;12.07;5.23;;;9.90;78.80;;;;;;5034911;28;20169;-82
2021/03/29 05:47:59;;;;;;;13.97;4.53;;;9.90;78.70;;;;;;5018028;28;20169;-82
2021/03/29 05:50:32;;;;;;;12.07;4.93;;;10.00;78.50;;;;;;5018023;28;20188;-82
2021/03/29 05:53:04;;;;;;;11.03;4.73;;;10.00;78.50;;;;;;5035808;28;20173;-82
2021/03/29 05:55:39;;;;;;;10.23;4.23;;;10.00;78.70;;;;;;5035969;28;20180;-82
2021/03/29 05:58:29;;;;;;;22.83;5.03;;;10.00;78.00;;;;;;5017958;28;20664;-82
2021/03/29 06:01:00;;;;;;;14.83;5.00;;;10.00;78.50;;;;;;5035650;28;20203;-82
2021/03/29 06:03:33;;;;;;;14.20;4.20;;;10.10;78.10;;;;;;5035791;28;20287;-82
2021/03/29 06:06:17;;;;;;;8.13;3.53;;;10.00;78.70;;;;;;5035789;28;20149;-82
2021/03/29 06:08:48;;;;;;;9.20;4.13;;;10.10;78.40;;;;;;5035689;28;20161;-82
2021/03/29 06:11:37;;;;;;;10.07;3.70;;;10.10;78.00;;;;;;5035592;28;20275;-82
2021/03/29 06:14:05;;;;;;;8.40;4.03;;;10.20;77.50;;;;;;5035774;28;20682;-82
2021/03/29 06:16:32;;;;;;;8.27;3.97;;;10.30;77.50;;;;;;5017890;28;20179;-82
2021/03/29 06:18:59;;;;;;;12.63;5.37;;;10.30;77.80;;;;;;5018018;28;20176;-81
2021/03/29 06:21:26;;;;;;;14.93;4.50;;;10.20;78.60;;;;;;5018073;28;20208;-82
2021/03/29 06:23:58;;;;;;;8.03;3.20;;;10.30;78.20;;;;;;5035649;28;20828;-82
2021/03/29 06:26:26;;;;;;;9.10;4.10;;;10.30;78.40;;;;;;5035692;28;20239;-82
2021/03/29 06:28:58;;;;;;;10.47;4.80;;;10.50;78.10;;;;;;5035466;28;20169;-82
2021/03/29 06:31:38;;;;;;;11.40;4.00;;;10.60;77.50;;;;;;5017331;28;20193;-82
2021/03/29 06:34:04;;;;;;;8.90;4.00;;;10.60;76.80;;;;;;5035397;28;20533;-82
2021/03/29 06:36:42;;;;;;;11.90;4.20;;;10.70;77.20;;;;;;5035348;28;20639;-82
2021/03/29 06:39:17;;;;;;;8.63;3.90;;;10.60;77.60;;;;;;5035068;28;20172;-82
2021/03/29 06:41:57;;;;;;;15.17;4.90;;;10.60;77.50;;;;;;5034782;28;20216;-82
2021/03/29 06:44:34;;;;;;;12.77;4.73;;;10.60;77.40;;;;;;5034989;28;20181;-82
2021/03/29 06:47:13;;;;;;;12.10;4.20;;;10.60;77.50;;;;;;5035186;28;20164;-82
2021/03/29 06:49:51;;;;;;;12.33;4.60;;;10.50;77.80;;;;;;5034724;28;20249;-82
2021/03/29 06:52:34;;;;;;;11.47;5.23;;;10.50;78.60;;;;;;5016825;28;20177;-82
2021/03/29 06:55:18;;;;;;;14.10;5.33;;;10.50;79.30;;;;;;5034600;28;20161;-82
2021/03/29 06:58:10;;;;;;;10.97;4.50;;;10.40;79.40;;;;;;5034508;28;20168;-82
2021/03/29 07:00:37;;;;;;;7.97;4.20;;;10.50;78.20;;;;;;5034656;28;20200;-82
2021/03/29 07:03:11;;;;;;;15.90;4.87;;;10.50;78.00;;;;;;5034649;28;20614;-82
2021/03/29 07:05:40;;;;;;;11.53;4.80;;;10.50;78.30;;;;;;5034478;28;20657;-83
2021/03/29 07:08:13;;;;;;;13.93;5.40;;;10.50;78.10;;;;;;5016519;28;20196;-82
2021/03/29 07:10:46;;;;;;;15.27;4.40;;;10.50;78.00;;;;;;5016664;28;20196;-82
2021/03/29 07:13:21;;;;;;;10.00;4.23;;;10.60;77.00;;;;;;5034256;28;20174;-82
2021/03/29 07:15:57;;;;;;;14.07;4.23;;;10.60;77.40;;;;;;5034224;28;20703;-82
2021/03/29 07:18:35;;;;;;;8.90;3.97;;;10.70;77.30;;;;;;5034136;28;20575;-82
2021/03/29 07:21:13;;;;;;;8.97;3.90;;;10.70;76.70;;;;;;5033893;28;20197;-82
2021/03/29 07:23:50;;;;;;;12.43;4.47;;;10.70;77.20;;;;;;5034124;28;20179;-82
2021/03/29 07:26:33;;;;;;;9.07;3.73;;;10.70;77.50;;;;;;5033986;28;20277;-82
2021/03/29 07:29:24;;;;;;;9.73;3.50;;;10.70;77.30;;;;;;5016162;28;20169;-82
2021/03/29 07:32:04;;;;;;;15.43;5.33;;;10.80;76.80;;;;;;5034049;28;20203;-82
2021/03/29 07:34:51;;;;;;;15.57;4.53;;;10.70;77.50;;;;;;5033926;28;20177;-82
2021/03/29 07:37:58;;;;;;;10.63;4.70;;;10.80;77.30;;;;;;5033897;28;20175;-82
2021/03/29 07:40:35;;;;;;;13.57;4.43;;;10.80;77.40;;;;;;5033544;28;20208;-82
2021/03/29 07:43:14;;;;;;;9.40;4.37;;;10.80;77.40;;;;;;5033559;28;20680;-82
2021/03/29 07:46:02;;;;;;;17.40;4.93;;;10.80;76.90;;;;;;5035579;28;20213;-83
2021/03/29 07:48:47;;;;;;;13.67;5.57;;;10.80;76.80;;;;;;5033943;28;20158;-82
2021/03/29 07:51:16;;;;;;;11.83;4.80;;;10.90;77.60;;;;;;5033436;28;20184;-82
2021/03/29 07:53:50;;;;;;;15.13;5.10;;;10.90;77.90;;;;;;5015786;28;20733;-82
2021/03/29 07:56:39;;;;;;;13.10;5.20;;;10.90;78.10;;;;;;5016038;28;20172;-82
2021/03/29 07:59:10;;;;;;;18.20;4.83;;;10.90;77.60;;;;;;5015709;28;20205;-82
2021/03/29 08:02:01;;;;;;;13.53;4.63;;;11.00;77.00;;;;;;5015404;28;20747;-82
2021/03/29 08:05:05;;;;;;;10.63;3.73;;;11.00;77.90;;;;;;5033341;28;20176;-82
2021/03/29 08:07:47;;;;;;;11.17;4.90;;;11.00;77.10;;;;;;5032816;28;20197;-82
2021/03/29 08:10:40;;;;;;;15.57;4.70;;;11.10;77.20;;;;;;5033255;28;20577;-82
2021/03/29 08:13:13;;;;;;;10.37;4.37;;;11.10;77.50;;;;;;5033602;28;20203;-82
2021/03/29 08:16:06;;;;;;;11.13;4.13;;;11.10;77.30;;;;;;5033659;28;20168;-82
2021/03/29 08:19:29;;;;;;;12.67;5.00;;;11.20;77.10;;;;;;5033629;28;20173;-83
2021/03/29 08:22:04;;;;;;;12.10;4.57;;;11.20;77.60;;;;;;4977986;28;20575;-82
2021/03/29 08:24:44;;;;;;;10.80;4.40;;;11.20;77.30;;;;;;5015368;28;20176;-82
2021/03/29 08:27:22;;;;;;;11.20;5.13;;;11.20;77.80;;;;;;5033179;28;20164;-82
2021/03/29 08:30:11;;;;;;;10.10;4.87;;;11.30;77.10;;;;;;5015429;28;20169;-82
2021/03/29 08:32:43;;;;;;;11.17;4.03;;;11.30;76.80;;;;;;5015320;28;20251;-82
2021/03/29 08:35:18;;;;;;;14.90;4.93;;;11.30;76.80;;;;;;5033018;28;20176;-82
2021/03/29 08:37:57;;;;;;;14.07;5.20;;;11.40;77.30;;;;;;5033331;28;20165;-82
2021/03/29 08:40:33;;;;;;;15.07;5.73;;;11.50;77.40;;;;;;5032820;28;20219;-82
2021/03/29 08:43:08;;;;;;;8.30;3.90;;;11.50;77.60;;;;;;5015544;28;20201;-83
2021/03/29 08:45:42;;;;;;;10.37;5.07;;;11.60;77.30;;;;;;5015933;28;20179;-83
2021/03/29 08:48:12;;;;;;;10.93;4.90;;;11.70;77.80;;;;;;5033294;28;20223;-81
2021/03/29 08:50:47;;;;;;;15.70;4.70;;;11.70;76.80;;;;;;5034067;28;20189;-84
2021/03/29 08:53:23;;;;;;;18.17;5.60;;;11.80;75.90;;;;;;5034127;28;20210;-83
2021/03/29 08:55:57;;;;;;;12.60;4.27;;;11.80;77.30;;;;;;5034798;28;20168;-83
2021/03/29 08:58:35;;;;;;;13.00;4.47;;;11.90;77.70;;;;;;5035392;28;20169;-84
2021/03/29 09:01:04;;;;;;;14.93;4.67;;;11.90;75.80;;;;;;5017213;28;20635;-84
2021/03/29 09:03:32;;;;;;;11.10;4.93;;;11.90;77.10;;;;;;5015680;28;20197;-82
2021/03/29 09:06:19;;;;;;;13.63;5.20;;;12.00;76.50;;;;;;5034986;28;20211;-83
2021/03/29 09:08:54;;;;;;;16.50;5.10;;;12.00;76.40;;;;;;5016164;28;20585;-83
2021/03/29 09:11:28;;;;;;;12.97;5.50;;;12.10;75.70;;;;;;5033106;28;20184;-82
2021/03/29 09:14:04;;;;;;;14.53;4.27;;;12.20;76.10;;;;;;5032833;28;20243;-82
2021/03/29 09:16:35;;;;;;;11.23;4.77;;;12.30;75.60;;;;;;5015020;28;20164;-82
2021/03/29 09:19:21;;;;;;;13.17;4.67;;;12.30;75.50;;;;;;5034830;28;20266;-82
2021/03/29 09:21:58;;;;;;;14.87;4.77;;;12.50;76.30;;;;;;5018388;28;20200;-82
2021/03/29 09:24:32;;;;;;;10.27;4.70;;;12.50;75.30;;;;;;5018397;28;20267;-82
2021/03/29 09:27:12;;;;;;;11.10;4.70;;;12.60;75.90;;;;;;5036713;28;20168;-82
2021/03/29 09:29:51;;;;;;;11.47;4.83;;;12.70;76.20;;;;;;5018235;28;20184;-83
2021/03/29 09:32:24;;;;;;;15.23;5.27;;;12.80;74.50;;;;;;5036172;28;20164;-83
2021/03/29 09:34:55;;;;;;;18.07;5.80;;;12.80;75.50;;;;;;5036094;28;20200;-82
2021/03/29 09:37:32;;;;;;;15.20;4.67;;;12.80;74.30;;;;;;5037454;28;20172;-82
2021/03/29 09:40:06;;;;;;;13.43;5.97;;;12.80;74.40;;;;;;5037221;28;20212;-84
2021/03/29 09:42:45;;;;;;;12.57;4.50;;;12.90;75.50;;;;;;5037363;28;20224;-83
2021/03/29 09:45:23;;;;;;;17.77;5.90;;;12.90;74.20;;;;;;5037995;28;20227;-84
2021/03/29 09:48:10;;;;;;;12.33;4.87;;;12.90;74.80;;;;;;5038824;28;20291;-84
2021/03/29 09:50:44;;;;;;;9.47;4.30;;;13.10;74.50;;;;;;5018833;28;20768;-82
2021/03/29 09:53:39;;;;;;;9.00;4.90;;;13.20;74.30;;;;;;5036113;28;20264;-82
2021/03/29 09:56:11;;;;;;;12.30;5.50;;;13.20;75.20;;;;;;5011497;28;20188;-82
2021/03/29 09:58:49;;;;;;;9.93;5.97;;;13.10;75.30;;;;;;5036555;28;20177;-81
2021/03/29 10:01:27;;;;;;;11.20;5.00;;;13.30;75.70;;;;;;5021589;28;20200;-84
2021/03/29 10:03:59;;;;;;;11.83;5.70;;;13.50;75.10;;;;;;5018947;28;20268;-82
2021/03/29 10:06:28;;;;;;;11.23;5.17;;;13.70;75.90;;;;;;5035710;28;20161;-82
2021/03/29 10:09:08;;;;;;;10.17;5.10;;;13.70;74.20;;;;;;5035887;28;20527;-83
2021/03/29 10:11:47;;;;;;;12.80;5.43;;;13.70;73.60;;;;;;5034367;28;20200;-82
2021/03/29 10:14:15;;;;;;;11.83;4.63;;;13.70;74.00;;;;;;5037210;28;20165;-82
2021/03/29 10:16:49;;;;;;;13.80;5.00;;;13.80;74.40;;;;;;5036250;28;20165;-82
2021/03/29 10:19:21;;;;;;;12.63;5.30;;;13.90;74.10;;;;;;5036363;28;20261;-82
2021/03/29 10:22:13;;;;;;;14.30;6.67;;;14.00;73.80;;;;;;5019269;28;20208;-82
2021/03/29 10:25:07;;;;;;;10.30;4.87;;;14.30;74.90;;;;;;5035772;28;20172;-82
2021/03/29 10:27:46;;;;;;;14.47;5.67;;;14.50;73.50;;;;;;5017791;28;20195;-83
2021/03/29 10:30:34;;;;;;;15.13;4.87;;;14.70;73.50;;;;;;5035209;28;20185;-82
2021/03/29 10:33:06;;;;;;;13.37;5.37;;;14.60;73.10;;;;;;5017525;28;20706;-83
2021/03/29 10:35:34;;;;;;;12.10;5.23;;;14.70;73.50;;;;;;5035318;28;20149;-83
2021/03/29 10:38:02;;;;;;;15.10;5.27;;;14.50;72.30;;;;;;5017256;28;20665;-83
2021/03/29 10:40:29;;;;;;;12.87;4.77;;;14.30;72.10;;;;;;5103601;22;21271;-84
2021/03/29 10:42:58;;;;;;;9.67;5.27;;;14.20;73.20;;;;;;5035101;28;20225;-83
2021/03/29 10:45:37;;;;;;;13.00;5.10;;;14.70;73.70;;;;;;5034796;28;20241;-84
2021/03/29 10:48:07;;;;;;;15.40;5.80;;;15.10;74.10;;;;;;5034848;28;20169;-84
2021/03/29 10:50:37;;;;;;;16.37;5.00;;;15.20;73.30;;;;;;5035073;28;20270;-83
2021/03/29 10:53:11;;;;;;;11.40;5.20;;;15.50;71.70;;;;;;5017067;28;20180;-82
2021/03/29 10:55:42;;;;;;;10.30;5.13;;;15.60;73.30;;;;;;5035089;28;20168;-82
2021/03/29 10:58:15;;;;;;;11.80;4.47;;;15.70;72.00;;;;;;5035189;28;20173;-82
2021/03/29 11:00:45;;;;;;;10.70;5.40;;;15.60;70.60;;;;;;5018016;28;20574;-82
2021/03/29 11:03:14;;;;;;;11.17;5.17;;;15.50;70.90;;;;;;5035091;28;20204;-83
2021/03/29 11:05:40;;;;;;;12.50;5.03;;;15.60;70.60;;;;;;5017378;28;20180;-83
2021/03/29 11:08:07;;;;;;;12.97;5.50;;;15.70;70.70;;;;;;5035790;28;20184;-83
2021/03/29 11:10:33;;;;;;;12.17;5.57;;;15.80;70.00;;;;;;5036530;28;20279;-84
2021/03/29 11:13:03;;;;;;;7.57;4.37;;;15.80;70.60;;;;;;5035914;28;20200;-83
2021/03/29 11:15:31;;;;;;;13.43;5.17;;;16.10;71.00;;;;;;5035600;28;20185;-85
2021/03/29 11:17:57;;;;;;;16.27;6.33;;;16.30;70.80;;;;;;5034914;28;20531;-83
2021/03/29 11:20:28;;;;;;;11.10;5.23;;;16.40;69.70;;;;;;5034941;28;20196;-83
2021/03/29 11:22:54;;;;;;;8.40;4.70;;;16.50;70.70;;;;;;5034445;28;20299;-83
2021/03/29 11:25:20;;;;;;;9.65;4.85;;;16.80;69.00;;;;;;5034585;28;20239;-83
2021/03/29 11:27:47;;;;;;;10.65;4.88;;;16.90;67.80;;;;;;5017773;28;20196;-83
2021/03/29 11:30:20;;;;;;;15.48;4.45;;;16.90;67.30;;;;;;5034829;28;20519;-83
2021/03/29 11:32:52;;;;;;;13.88;5.25;;;16.90;66.40;;;;;;5034203;28;20234;-83
2021/03/29 11:35:20;;;;;;;16.08;4.90;;;17.20;67.10;;;;;;5035236;28;20173;-84
2021/03/29 11:37:54;;;;;;;10.55;5.07;;;17.20;67.30;;;;;;5035785;28;20176;-82
2021/03/29 11:40:22;;;;;;;11.77;4.65;;;17.10;67.40;;;;;;5033832;28;20280;-82
2021/03/29 11:42:54;;;;;;;10.88;5.43;;;17.00;65.50;;;;;;5033285;28;20274;-83
2021/03/29 11:45:23;;;;;;;10.90;5.90;;;17.10;67.00;;;;;;5034435;28;20524;-83
2021/03/29 11:48:01;;;;;;;10.18;5.40;;;17.20;66.70;;;;;;5033737;28;20169;-83
2021/03/29 11:50:34;;;;;;;9.02;5.38;;;17.10;67.00;;;;;;5033656;28;20196;-83
2021/03/29 11:53:00;;;;;;;11.63;5.30;;;17.20;67.70;;;;;;5033676;28;20652;-83
2021/03/29 11:55:27;;;;;;;12.25;5.50;;;17.00;66.40;;;;;;5034094;28;20172;-83
2021/03/29 11:57:55;;;;;;;9.93;5.47;;;17.40;68.00;;;;;;5033580;28;20172;-83
2021/03/29 12:00:35;;;;;;;15.63;5.13;;;18.10;66.20;;;;;;5033868;28;20196;-83
2021/03/29 12:06:06;;;;;;;12.80;5.47;;;17.30;66.10;;;;;;5033918;28;20149;-82
2021/03/29 12:08:57;;;;;;;14.70;5.30;;;16.80;67.40;;;;;;5033774;28;20668;-82
2021/03/29 12:14:17;;;;;;;11.88;5.55;;;16.70;67.60;;;;;;5033755;28;20184;-85
2021/03/29 12:16:49;;;;;;;12.43;5.18;;;16.80;67.90;;;;;;5017450;28;20180;-84
2021/03/29 12:19:24;;;;;;;11.25;5.80;;;16.90;67.50;;;;;;5033330;28;20184;-84
2021/03/29 12:22:05;;;;;;;11.68;6.28;;;16.80;68.50;;;;;;5032450;28;20912;-84
2021/03/29 12:24:40;;;;;;;12.27;5.55;;;16.90;69.30;;;;;;5034054;28;20192;-84
2021/03/29 12:27:13;;;;;;;9.95;5.47;;;16.90;68.90;;;;;;5015446;28;20259;-84
2021/03/29 12:29:47;;;;;;;11.43;4.90;;;17.20;67.60;;;;;;5015318;28;20192;-84
2021/03/29 12:32:17;;;;;;;13.73;5.72;;;17.10;67.40;;;;;;5033590;28;20204;-83
2021/03/29 12:34:53;;;;;;;13.40;5.38;;;17.20;67.40;;;;;;5033486;28;20546;-83
2021/03/29 12:37:23;;;;;;;11.32;6.18;;;17.00;67.00;;;;;;5033135;28;20553;-84
2021/03/29 12:40:02;;;;;;;12.70;5.53;;;16.80;65.90;;;;;;5034848;28;20172;-86
2021/03/29 12:42:36;;;;;;;14.93;5.40;;;16.60;67.60;;;;;;5016947;28;20678;-84
2021/03/29 12:45:09;;;;;;;11.60;5.05;;;16.90;66.80;;;;;;5034861;28;20234;-84
2021/03/29 12:47:39;;;;;;;12.38;5.63;;;16.60;67.00;;;;;;5015462;28;20255;-84
2021/03/29 12:50:19;;;;;;;12.80;5.95;;;16.30;67.90;;;;;;5033288;28;20164;-84
2021/03/29 12:52:53;;;;;;;19.02;5.85;;;16.30;67.30;;;;;;5033326;28;20250;-83
2021/03/29 12:55:31;;;;;;;12.50;5.35;;;16.20;68.10;;;;;;5037637;28;20172;-82
2021/03/29 12:58:04;;;;;;;12.50;5.80;;;16.00;69.00;;;;;;5037806;28;20542;-83
2021/03/29 13:00:38;;;;;;;15.70;6.00;;;16.20;69.40;;;;;;5036943;28;20189;-83
2021/03/29 13:03:12;;;;;;;12.98;5.85;;;16.30;68.90;;;;;;5019576;28;20287;-83
2021/03/29 13:08:22;;;;;;;12.55;5.72;;;16.20;68.70;;;;;;5036715;28;20517;-83
2021/03/29 13:13:40;;;;;;;15.27;5.87;;;16.20;67.80;;;;;;5036671;28;20193;-83
2021/03/29 13:16:13;;;;;;;16.38;5.60;;;16.10;68.30;;;;;;5018804;28;20176;-83
2021/03/29 13:18:46;;;;;;;12.20;6.10;;;16.20;68.70;;;;;;5018676;28;20179;-83
2021/03/29 13:21:16;;;;;;;11.93;6.40;;;16.20;68.20;;;;;;5036568;28;20276;-83
2021/03/29 13:23:57;;;;;;;16.55;5.93;;;16.10;69.00;;;;;;5036451;28;20179;-82
2021/03/29 13:26:27;;;;;;;15.10;6.17;;;16.00;68.70;;;;;;5018686;28;20723;-83
2021/03/29 13:29:01;;;;;;;15.77;5.85;;;16.10;69.00;;;;;;5018538;28;20230;-83
2021/03/29 13:31:34;;;;;;;14.88;6.32;;;16.00;68.60;;;;;;5036098;28;20286;-83